createdAt,value
2023-03-24T00:01:57.279Z,50.24
2023-03-24T00:04:24.930Z,50.26
2023-03-24T00:06:52.274Z,50.27
2023-03-24T00:09:18.654Z,50.17
2023-03-24T00:11:44.982Z,50.25
2023-03-24T00:14:12.201Z,50.21
2023-03-24T00:16:45.269Z,50.23
2023-03-24T00:19:13.508Z,50.22
2023-03-24T00:21:39.858Z,50.21
2023-03-24T00:24:07.664Z,50.25
2023-03-24T00:26:34.549Z,50.27
2023-03-24T00:29:02.040Z,50.23
2023-03-24T00:31:28.409Z,50.22
2023-03-24T00:33:54.857Z,50.24
2023-03-24T00:36:22.980Z,50.27
2023-03-24T00:38:49.978Z,50.25
2023-03-24T00:41:20.345Z,50.24
2023-03-24T00:43:47.557Z,50.11
2023-03-24T00:46:28.436Z,50.25
2023-03-24T00:48:57.867Z,50.17
2023-03-24T00:51:24.322Z,50.14
2023-03-24T00:53:50.654Z,50.11
2023-03-24T00:56:16.970Z,50.18
2023-03-24T00:58:43.308Z,50.08
2023-03-24T01:01:09.796Z,50.11
2023-03-24T01:03:43.128Z,50.10
2023-03-24T01:06:11.433Z,50.17
2023-03-24T01:08:38.617Z,50.21
2023-03-24T01:11:05.364Z,50.26
2023-03-24T01:13:31.947Z,50.14
2023-03-24T01:15:58.497Z,50.14
2023-03-24T01:18:24.858Z,50.16
2023-03-24T01:20:51.229Z,50.21
2023-03-24T01:23:19.920Z,50.17
2023-03-24T01:25:48.078Z,50.15
2023-03-24T01:28:15.458Z,50.20
2023-03-24T01:30:41.791Z,50.25
2023-03-24T01:33:08.137Z,50.08
2023-03-24T01:35:34.479Z,50.21
2023-03-24T01:38:00.846Z,50.09
2023-03-24T01:40:28.759Z,50.10
2023-03-24T01:42:55.271Z,50.15
2023-03-24T01:45:39.992Z,50.18
2023-03-24T01:48:12.596Z,50.20
2023-03-24T01:50:38.960Z,50.20
2023-03-24T01:53:05.316Z,50.13
2023-03-24T01:55:31.679Z,50.24
2023-03-24T01:57:59.577Z,50.28
2023-03-24T02:00:33.051Z,50.23
2023-03-24T02:03:19.209Z,50.15
2023-03-24T02:05:52.205Z,50.25
2023-03-24T02:08:22.042Z,50.16
2023-03-24T02:10:48.452Z,50.15
2023-03-24T02:13:15.384Z,50.13
2023-03-24T02:15:53.360Z,50.13
2023-03-24T02:18:25.813Z,50.15
2023-03-24T02:20:58.172Z,50.25
2023-03-24T02:23:43.411Z,50.20
2023-03-24T02:26:09.852Z,50.27
2023-03-24T02:28:39.782Z,50.25
2023-03-24T02:31:08.585Z,50.23
2023-03-24T02:33:40.791Z,50.21
2023-03-24T02:36:24.441Z,50.15
2023-03-24T02:39:09.805Z,50.22
2023-03-24T02:41:39.244Z,50.25
2023-03-24T02:44:22.355Z,50.28
2023-03-24T02:46:50.447Z,50.26
2023-03-24T02:49:27.812Z,50.20
2023-03-24T02:51:58.104Z,50.18
2023-03-24T02:54:27.740Z,50.21
2023-03-24T02:56:55.969Z,50.31
2023-03-24T02:59:43.843Z,50.30
2023-03-24T03:02:37.855Z,50.30
2023-03-24T03:05:06.359Z,50.24
2023-03-24T03:07:37.567Z,50.28
2023-03-24T03:10:20.490Z,50.31
2023-03-24T03:12:49.330Z,50.26
2023-03-24T03:15:16.964Z,50.29
2023-03-24T03:17:48.121Z,50.29
2023-03-24T03:20:18.621Z,50.21
2023-03-24T03:22:46.212Z,50.34
2023-03-24T03:25:12.910Z,50.20
2023-03-24T03:27:39.525Z,50.22
2023-03-24T03:30:07.662Z,50.33
2023-03-24T03:32:34.748Z,50.34
2023-03-24T03:35:01.227Z,50.29
2023-03-24T03:37:33.178Z,50.31
2023-03-24T03:40:00.229Z,50.26
2023-03-24T03:42:27.399Z,50.36
2023-03-24T03:44:53.812Z,50.29
2023-03-24T03:47:22.971Z,50.26
2023-03-24T03:49:50.093Z,50.29
2023-03-24T03:52:16.437Z,50.11
2023-03-24T03:54:43.091Z,50.25
2023-03-24T03:57:10.751Z,50.28
2023-03-24T03:59:47.636Z,50.30
2023-03-24T04:02:26.126Z,50.45
2023-03-24T04:05:14.150Z,50.52
2023-03-24T04:07:47.760Z,50.52
2023-03-24T04:10:27.087Z,50.56
2023-03-24T04:12:57.282Z,50.66
2023-03-24T04:15:57.509Z,50.58
2023-03-24T04:18:56.123Z,50.62
2023-03-24T04:21:28.356Z,50.70
2023-03-24T04:23:58.374Z,50.75
2023-03-24T04:26:29.090Z,50.31
2023-03-24T04:29:13.906Z,50.55
2023-03-24T04:31:59.014Z,50.39
2023-03-24T04:34:29.135Z,50.51
2023-03-24T04:37:02.717Z,50.46
2023-03-24T04:39:38.739Z,50.83
2023-03-24T04:42:10.074Z,50.77
2023-03-24T04:44:36.428Z,50.87
2023-03-24T04:47:22.928Z,50.97
2023-03-24T04:50:04.405Z,51.39
2023-03-24T04:52:32.520Z,51.33
2023-03-24T04:55:00.940Z,51.24
2023-03-24T04:57:27.277Z,51.24
2023-03-24T05:00:01.191Z,51.34
2023-03-24T05:02:29.106Z,51.32
2023-03-24T05:05:03.875Z,51.30
2023-03-24T05:07:34.932Z,51.22
2023-03-24T05:10:05.244Z,51.31
2023-03-24T05:12:36.828Z,51.34
2023-03-24T05:15:21.281Z,51.43
2023-03-24T05:17:52.943Z,51.25
2023-03-24T05:20:22.913Z,51.49
2023-03-24T05:22:50.672Z,51.45
2023-03-24T05:25:17.000Z,51.49
2023-03-24T05:27:43.334Z,51.48
2023-03-24T05:30:20.400Z,51.34
2023-03-24T05:32:48.474Z,51.46
2023-03-24T05:35:14.842Z,51.42
2023-03-24T05:37:42.700Z,51.20
2023-03-24T05:40:09.323Z,51.20
2023-03-24T05:42:43.707Z,51.14
2023-03-24T05:45:12.157Z,51.42
2023-03-24T05:47:39.255Z,51.55
2023-03-24T05:50:05.887Z,51.64
2023-03-24T05:52:33.130Z,51.52
2023-03-24T05:55:15.941Z,51.76
2023-03-24T05:57:43.428Z,51.73
2023-03-24T06:00:30.516Z,51.75
2023-03-24T06:03:06.237Z,51.62
2023-03-24T06:05:39.743Z,51.51
2023-03-24T06:08:06.106Z,51.56
2023-03-24T06:10:36.776Z,51.29
2023-03-24T06:13:03.709Z,51.47
2023-03-24T06:15:31.821Z,51.45
2023-03-24T06:18:14.365Z,51.68
2023-03-24T06:20:41.363Z,51.53
2023-03-24T06:23:11.245Z,53.58
2023-03-24T06:25:53.603Z,53.96
2023-03-24T06:28:22.819Z,55.55
2023-03-24T06:30:50.079Z,55.90
2023-03-24T06:33:25.845Z,56.23
2023-03-24T06:35:53.425Z,56.84
2023-03-24T06:38:20.471Z,56.64
2023-03-24T06:40:46.990Z,56.87
2023-03-24T06:43:13.837Z,57.15
2023-03-24T06:45:41.715Z,56.84
2023-03-24T06:48:13.062Z,55.90
2023-03-24T06:50:41.194Z,56.71
2023-03-24T06:53:09.436Z,56.31
2023-03-24T06:55:36.530Z,56.63
2023-03-24T06:58:04.341Z,57.31
2023-03-24T07:00:57.413Z,56.99
2023-03-24T07:03:31.865Z,58.83
2023-03-24T07:06:22.862Z,57.76
2023-03-24T07:08:53.160Z,56.45
2023-03-24T07:11:21.558Z,55.52
2023-03-24T07:13:53.409Z,55.74
2023-03-24T07:16:20.007Z,55.13
2023-03-24T07:18:50.774Z,55.12
2023-03-24T07:21:18.166Z,54.63
2023-03-24T07:23:46.119Z,55.50
2023-03-24T07:26:15.346Z,55.00
2023-03-24T07:28:44.286Z,55.85
2023-03-24T07:31:12.219Z,56.26
2023-03-24T07:33:40.540Z,55.31
2023-03-24T07:36:10.166Z,54.54
2023-03-24T07:38:38.921Z,54.40
2023-03-24T07:41:09.519Z,55.04
2023-03-24T07:43:39.770Z,54.92
2023-03-24T07:46:38.551Z,54.33
2023-03-24T07:49:18.114Z,53.93
2023-03-24T07:51:50.840Z,54.16
2023-03-24T07:54:21.656Z,53.13
2023-03-24T07:56:48.796Z,53.00
2023-03-24T07:59:15.386Z,52.94
2023-03-24T08:02:01.145Z,52.67
2023-03-24T08:04:45.000Z,52.41
2023-03-24T08:07:27.740Z,52.10
2023-03-24T08:09:54.055Z,51.70
2023-03-24T08:12:20.901Z,51.40
2023-03-24T08:14:47.325Z,51.51
2023-03-24T08:17:13.698Z,51.42
2023-03-24T08:19:52.058Z,51.33
2023-03-24T08:22:25.316Z,51.07
2023-03-24T08:24:51.652Z,51.20
2023-03-24T08:27:17.999Z,51.16
2023-03-24T08:29:44.385Z,50.98
2023-03-24T08:32:10.776Z,51.21
2023-03-24T08:34:37.104Z,51.13
2023-03-24T08:37:03.415Z,50.86
2023-03-24T08:39:32.307Z,50.66
2023-03-24T08:41:58.667Z,50.62
2023-03-24T08:44:25.001Z,50.74
2023-03-24T08:46:51.363Z,51.01
2023-03-24T08:49:17.770Z,51.10
2023-03-24T08:51:44.205Z,51.12
2023-03-24T08:54:12.568Z,50.96
2023-03-24T08:56:39.236Z,51.02
2023-03-24T08:59:06.666Z,50.70
2023-03-24T09:01:35.963Z,50.41
2023-03-24T09:04:02.468Z,49.91
2023-03-24T09:06:28.816Z,49.86
2023-03-24T09:08:55.527Z,49.99
2023-03-24T09:11:21.928Z,49.41
2023-03-24T09:13:48.292Z,49.14
2023-03-24T09:16:15.034Z,50.36
2023-03-24T09:18:41.587Z,50.81
2023-03-24T09:21:08.002Z,50.95
2023-03-24T09:23:34.523Z,51.13
2023-03-24T09:26:01.370Z,50.91
2023-03-24T09:28:27.804Z,50.53
2023-03-24T09:31:00.860Z,50.80
2023-03-24T09:33:27.263Z,51.25
2023-03-24T09:35:54.404Z,51.16
2023-03-24T09:38:21.428Z,50.78
2023-03-24T09:40:47.885Z,50.35
2023-03-24T09:43:16.077Z,50.62
2023-03-24T09:45:44.670Z,50.38
2023-03-24T09:48:12.545Z,50.53
2023-03-24T09:50:43.340Z,50.68
2023-03-24T09:53:12.014Z,50.78
2023-03-24T09:55:38.948Z,50.59
2023-03-24T09:58:06.103Z,50.53
2023-03-24T10:00:32.761Z,50.80
2023-03-24T10:03:00.569Z,50.65
2023-03-24T10:05:29.269Z,50.29
2023-03-24T10:07:57.050Z,50.14
2023-03-24T10:10:27.363Z,50.21
2023-03-24T10:12:53.688Z,50.52
2023-03-24T10:15:37.679Z,50.51
2023-03-24T10:18:16.047Z,50.41
2023-03-24T10:20:44.229Z,50.35
2023-03-24T10:23:16.386Z,50.75
2023-03-24T10:25:51.309Z,50.29
2023-03-24T10:28:19.924Z,50.23
2023-03-24T10:30:48.183Z,50.62
2023-03-24T10:33:15.312Z,50.68
2023-03-24T10:35:43.661Z,50.45
2023-03-24T10:38:14.509Z,50.43
2023-03-24T10:40:41.327Z,50.27
2023-03-24T10:43:09.603Z,50.31
2023-03-24T10:45:36.769Z,50.57
2023-03-24T10:48:03.580Z,50.73
2023-03-24T10:50:30.718Z,50.88
2023-03-24T10:52:57.473Z,50.89
2023-03-24T10:55:24.452Z,50.88
2023-03-24T10:57:52.365Z,50.94
2023-03-24T11:00:29.464Z,50.76
2023-03-24T11:02:57.166Z,50.96
2023-03-24T11:05:28.969Z,50.44
2023-03-24T11:07:55.495Z,49.86
2023-03-24T11:10:25.193Z,49.96
2023-03-24T11:12:54.178Z,50.21
2023-03-24T11:15:24.036Z,50.37
2023-03-24T11:17:54.885Z,50.42
2023-03-24T11:20:24.465Z,50.54
2023-03-24T11:23:01.616Z,50.61
2023-03-24T11:25:28.457Z,50.35
2023-03-24T11:27:59.434Z,50.74
2023-03-24T11:30:27.053Z,50.30
2023-03-24T11:32:54.973Z,50.25
2023-03-24T11:35:23.273Z,50.19
2023-03-24T11:37:55.876Z,50.33
2023-03-24T11:40:22.793Z,50.26
2023-03-24T11:42:51.007Z,50.36
2023-03-24T11:45:37.732Z,50.30
2023-03-24T11:48:11.563Z,50.28
2023-03-24T11:50:38.390Z,50.30
2023-03-24T11:53:11.392Z,50.20
2023-03-24T11:55:48.032Z,50.31
2023-03-24T11:58:21.551Z,50.25
2023-03-24T12:00:52.581Z,50.27
2023-03-24T12:03:34.920Z,50.18
2023-03-24T12:06:14.956Z,50.13
2023-03-24T12:08:50.944Z,50.24
2023-03-24T12:11:20.471Z,50.00
2023-03-24T12:13:49.113Z,50.32
2023-03-24T12:16:34.286Z,50.02
2023-03-24T12:19:19.470Z,50.10
2023-03-24T12:21:52.344Z,50.22
2023-03-24T12:24:28.800Z,50.11
2023-03-24T12:26:58.493Z,50.09
2023-03-24T12:29:36.671Z,49.69
2023-03-24T12:32:21.854Z,49.46
2023-03-24T12:35:01.813Z,49.52
2023-03-24T12:37:34.218Z,50.09
2023-03-24T12:40:13.281Z,51.99
2023-03-24T12:42:40.640Z,51.77
2023-03-24T12:45:16.533Z,51.35
2023-03-24T12:47:46.196Z,50.53
2023-03-24T12:50:12.499Z,49.48
2023-03-24T12:52:49.058Z,50.21
2023-03-24T12:55:30.656Z,49.94
2023-03-24T12:58:09.847Z,49.81
2023-03-24T13:00:41.249Z,49.94
2023-03-24T13:03:11.879Z,49.98
2023-03-24T13:05:40.237Z,49.37
2023-03-24T13:08:10.771Z,49.06
2023-03-24T13:10:40.777Z,49.22
2023-03-24T13:13:17.397Z,49.32
2023-03-24T13:15:45.735Z,49.06
2023-03-24T13:18:12.086Z,48.91
2023-03-24T13:20:57.091Z,48.89
2023-03-24T13:23:46.810Z,49.48
2023-03-24T13:26:21.517Z,48.93
2023-03-24T13:28:50.896Z,48.71
2023-03-24T13:31:17.475Z,48.74
2023-03-24T13:33:44.912Z,48.49
2023-03-24T13:36:29.746Z,48.36
2023-03-24T13:38:56.885Z,48.44
2023-03-24T13:41:24.573Z,48.83
2023-03-24T13:43:51.929Z,48.60
2023-03-24T13:46:18.276Z,48.72
2023-03-24T13:48:44.940Z,48.18
2023-03-24T13:51:17.396Z,48.46
2023-03-24T13:54:03.923Z,48.46
2023-03-24T13:56:33.861Z,49.05
2023-03-24T13:59:03.131Z,49.57
2023-03-24T14:01:39.501Z,48.79
2023-03-24T14:04:20.417Z,48.52
2023-03-24T14:06:47.503Z,48.58
2023-03-24T14:09:29.945Z,48.81
2023-03-24T14:11:56.192Z,49.02
2023-03-24T14:14:23.048Z,49.53
2023-03-24T14:16:49.379Z,49.15
2023-03-24T14:19:19.422Z,49.12
2023-03-24T14:21:52.470Z,48.69
2023-03-24T14:24:26.129Z,48.72
2023-03-24T14:26:52.458Z,48.78
2023-03-24T14:29:37.362Z,48.68
2023-03-24T14:32:17.208Z,49.15
2023-03-24T14:34:56.974Z,49.77
2023-03-24T14:37:23.612Z,49.49
2023-03-24T14:39:49.963Z,48.90
2023-03-24T14:42:25.954Z,49.49
2023-03-24T14:44:53.518Z,49.96
2023-03-24T14:47:20.353Z,49.82
2023-03-24T14:49:46.683Z,49.89
2023-03-24T14:52:13.498Z,50.07
2023-03-24T14:54:39.860Z,50.13
2023-03-24T14:57:06.369Z,50.01
2023-03-24T14:59:46.583Z,50.27
2023-03-24T15:02:28.409Z,49.74
2023-03-24T15:05:13.300Z,50.15
2023-03-24T15:07:39.795Z,50.11
2023-03-24T15:10:06.442Z,49.56
2023-03-24T15:12:32.936Z,49.64
2023-03-24T15:15:00.689Z,49.35
2023-03-24T15:17:27.378Z,49.00
2023-03-24T15:19:53.804Z,49.01
2023-03-24T15:22:20.434Z,49.05
2023-03-24T15:24:47.314Z,48.99
2023-03-24T15:27:14.592Z,49.27
2023-03-24T15:29:41.402Z,49.61
2023-03-24T15:32:09.495Z,49.31
2023-03-24T15:34:36.574Z,48.90
2023-03-24T15:37:27.541Z,49.19
2023-03-24T15:40:05.279Z,48.58
2023-03-24T15:42:41.507Z,48.46
2023-03-24T15:45:12.198Z,47.97
2023-03-24T15:47:38.582Z,48.49
2023-03-24T15:50:06.229Z,48.56
2023-03-24T15:52:34.913Z,48.98
2023-03-24T15:55:01.972Z,49.08
2023-03-24T15:57:28.537Z,49.30
2023-03-24T15:59:57.830Z,49.48
2023-03-24T16:02:31.285Z,49.24
2023-03-24T16:05:09.849Z,49.47
2023-03-24T16:07:37.549Z,49.67
2023-03-24T16:10:05.641Z,49.36
2023-03-24T16:12:35.612Z,49.39
2023-03-24T16:15:02.044Z,49.36
2023-03-24T16:17:28.432Z,49.84
2023-03-24T16:19:54.762Z,49.61
2023-03-24T16:22:21.086Z,49.36
2023-03-24T16:24:47.605Z,49.82
2023-03-24T16:27:13.942Z,49.06
2023-03-24T16:29:43.913Z,48.92
2023-03-24T16:32:13.136Z,48.73
2023-03-24T16:34:39.474Z,48.77
2023-03-24T16:37:06.019Z,48.38
2023-03-24T16:39:32.466Z,48.84
2023-03-24T16:41:58.798Z,48.46
2023-03-24T16:44:25.202Z,49.24
2023-03-24T16:46:51.996Z,48.96
2023-03-24T16:49:18.533Z,49.58
2023-03-24T16:51:45.120Z,49.29
2023-03-24T16:54:11.464Z,48.98
2023-03-24T16:56:38.172Z,49.05
2023-03-24T16:59:04.512Z,49.18
2023-03-24T17:01:33.472Z,48.92
2023-03-24T17:04:01.053Z,48.80
2023-03-24T17:06:28.001Z,48.84
2023-03-24T17:08:54.364Z,49.04
2023-03-24T17:11:24.439Z,48.93
2023-03-24T17:13:51.318Z,48.87
2023-03-24T17:16:17.700Z,49.05
2023-03-24T17:18:44.070Z,48.85
2023-03-24T17:21:13.528Z,48.63
2023-03-24T17:23:39.844Z,48.56
2023-03-24T17:26:06.206Z,49.40
2023-03-24T17:28:32.530Z,49.51
2023-03-24T17:30:58.871Z,49.51
2023-03-24T17:33:25.260Z,49.42
2023-03-24T17:35:52.448Z,49.38
2023-03-24T17:38:18.916Z,49.58
2023-03-24T17:40:46.547Z,49.25
2023-03-24T17:43:13.091Z,49.16
2023-03-24T17:45:39.939Z,49.54
2023-03-24T17:48:06.379Z,49.01
2023-03-24T17:50:33.135Z,49.34
2023-03-24T17:53:00.700Z,49.49
2023-03-24T17:55:27.101Z,49.60
2023-03-24T17:57:53.430Z,49.35
2023-03-24T18:00:20.503Z,49.17
2023-03-24T18:02:47.009Z,49.11
2023-03-24T18:05:13.379Z,49.29
2023-03-24T18:07:39.873Z,49.62
2023-03-24T18:10:06.685Z,45.18
2023-03-24T18:12:33.044Z,43.70
2023-03-24T18:14:59.415Z,43.14
2023-03-24T18:17:25.834Z,42.76
2023-03-24T18:19:52.870Z,43.12
2023-03-24T18:22:19.203Z,44.10
2023-03-24T18:24:45.562Z,44.91
2023-03-24T18:27:11.886Z,46.22
2023-03-24T18:29:38.238Z,46.38
2023-03-24T18:32:06.108Z,46.56
2023-03-24T18:34:32.726Z,45.34
2023-03-24T18:36:59.105Z,44.37
2023-03-24T18:39:25.813Z,43.65
2023-03-24T18:41:53.626Z,43.13
2023-03-24T18:44:20.990Z,43.49
2023-03-24T18:46:47.327Z,43.24
2023-03-24T18:49:14.424Z,43.31
2023-03-24T18:51:41.913Z,43.40
2023-03-24T18:54:08.246Z,43.46
2023-03-24T18:56:34.593Z,44.04
2023-03-24T18:59:01.350Z,44.38
2023-03-24T19:01:27.782Z,44.60
2023-03-24T19:03:54.278Z,45.23
2023-03-24T19:06:20.670Z,45.22
2023-03-24T19:08:49.768Z,45.61
2023-03-24T19:11:16.360Z,45.91
2023-03-24T19:13:46.054Z,45.97
2023-03-24T19:16:12.492Z,46.18
2023-03-24T19:18:38.838Z,46.06
2023-03-24T19:21:06.780Z,46.23
2023-03-24T19:23:33.156Z,46.22
2023-03-24T19:25:59.494Z,46.22
2023-03-24T19:28:29.700Z,46.37
2023-03-24T19:30:56.581Z,46.62
2023-03-24T19:33:22.913Z,46.47
2023-03-24T19:35:49.758Z,46.77
2023-03-24T19:38:17.018Z,47.38
2023-03-24T19:40:43.339Z,47.28
2023-03-24T19:43:09.684Z,47.54
2023-03-24T19:45:36.306Z,47.70
2023-03-24T19:48:02.819Z,47.65
2023-03-24T19:50:29.313Z,47.66
2023-03-24T19:52:55.722Z,47.66
2023-03-24T19:55:22.110Z,47.76
2023-03-24T19:57:48.447Z,47.69
2023-03-24T20:00:15.001Z,47.74
2023-03-24T20:02:41.505Z,47.71
2023-03-24T20:05:08.001Z,47.61
2023-03-24T20:07:34.329Z,47.76
2023-03-24T20:10:00.685Z,47.63
2023-03-24T20:12:27.753Z,47.64
2023-03-24T20:14:54.218Z,47.71
2023-03-24T20:17:21.012Z,47.83
2023-03-24T20:19:47.944Z,47.68
2023-03-24T20:22:14.533Z,47.80
2023-03-24T20:24:42.581Z,47.81
2023-03-24T20:27:08.946Z,47.98
2023-03-24T20:29:35.611Z,47.96
2023-03-24T20:32:01.953Z,48.01
2023-03-24T20:34:28.328Z,48.16
2023-03-24T20:36:54.679Z,48.10
2023-03-24T20:39:20.995Z,48.14
2023-03-24T20:41:47.321Z,48.01
2023-03-24T20:44:13.673Z,48.21
2023-03-24T20:46:40.004Z,48.12
2023-03-24T20:49:07.683Z,48.26
2023-03-24T20:51:34.091Z,48.23
2023-03-24T20:54:00.521Z,48.22
2023-03-24T20:56:26.950Z,48.37
2023-03-24T20:58:53.340Z,48.33
2023-03-24T21:01:23.765Z,48.24
2023-03-24T21:03:50.561Z,48.21
2023-03-24T21:06:17.313Z,48.50
2023-03-24T21:08:45.110Z,48.55
2023-03-24T21:11:11.672Z,48.60
2023-03-24T21:13:38.267Z,48.63
2023-03-24T21:16:08.103Z,48.68
2023-03-24T21:18:35.329Z,48.71
2023-03-24T21:21:04.682Z,48.88
2023-03-24T21:23:34.517Z,48.86
2023-03-24T21:26:01.507Z,48.95
2023-03-24T21:28:28.176Z,48.83
2023-03-24T21:30:54.760Z,48.97
2023-03-24T21:33:21.234Z,48.98
2023-03-24T21:35:47.671Z,48.92
2023-03-24T21:38:15.810Z,48.94
2023-03-24T21:40:42.444Z,48.99
2023-03-24T21:43:09.207Z,49.01
2023-03-24T21:45:38.237Z,48.92
2023-03-24T21:48:05.352Z,48.90
2023-03-24T21:50:34.588Z,49.05
2023-03-24T21:53:01.571Z,49.04
2023-03-24T21:55:27.928Z,49.23
2023-03-24T21:57:54.269Z,49.17
2023-03-24T22:00:21.429Z,49.08
2023-03-24T22:02:49.702Z,49.08
2023-03-24T22:05:20.481Z,49.11
2023-03-24T22:07:47.013Z,49.22
2023-03-24T22:10:14.521Z,49.27
2023-03-24T22:12:41.611Z,49.32
2023-03-24T22:15:09.622Z,49.17
2023-03-24T22:17:36.406Z,49.33
2023-03-24T22:20:05.221Z,49.36
2023-03-24T22:22:34.567Z,49.41
2023-03-24T22:25:01.387Z,49.35
2023-03-24T22:27:27.842Z,49.37
2023-03-24T22:29:54.160Z,49.42
2023-03-24T22:32:20.616Z,49.56
2023-03-24T22:34:46.990Z,49.51
2023-03-24T22:37:13.340Z,49.53
2023-03-24T22:39:39.664Z,49.50
2023-03-24T22:42:05.982Z,49.38
2023-03-24T22:44:33.534Z,49.57
2023-03-24T22:47:00.187Z,49.55
2023-03-24T22:49:26.516Z,49.51
2023-03-24T22:51:52.848Z,49.74
2023-03-24T22:54:19.187Z,49.66
2023-03-24T22:56:45.530Z,49.64
2023-03-24T22:59:11.871Z,49.55
2023-03-24T23:01:38.239Z,49.62
2023-03-24T23:04:04.602Z,49.65
2023-03-24T23:06:30.982Z,49.72
2023-03-24T23:08:57.351Z,49.70
2023-03-24T23:11:23.697Z,49.75
2023-03-24T23:13:50.422Z,49.73
2023-03-24T23:16:16.932Z,49.74
2023-03-24T23:18:43.524Z,49.70
2023-03-24T23:21:10.741Z,49.75
2023-03-24T23:23:37.196Z,49.77
2023-03-24T23:26:04.415Z,49.78
2023-03-24T23:28:33.824Z,49.83
2023-03-24T23:31:00.314Z,49.75
2023-03-24T23:33:27.393Z,49.73
2023-03-24T23:35:57.038Z,49.70
2023-03-24T23:38:23.422Z,49.77
2023-03-24T23:40:49.740Z,49.82
2023-03-24T23:43:16.282Z,49.67
2023-03-24T23:45:44.626Z,49.72
2023-03-24T23:48:11.042Z,49.76
2023-03-24T23:50:37.361Z,49.70
2023-03-24T23:53:03.698Z,49.81
2023-03-24T23:55:30.025Z,49.76
2023-03-24T23:57:56.472Z,49.68
